Time;durP1;ratioP1;P1;durP2;ratioP2;P2;SDS_P1;SDS_P2;PMS_P1;PMS_P2;Temp;Humidity;BMP_temperature;BMP_pressure;BME280_temperature;BME280_humidity;BME280_pressure;Samples;Min_cycle;Max_cycle;Signal;HPM_P1;HPM_P2
2023/05/15 00:00:46;;;;;;;1.90;1.20;;;;;;;19.69;67.80;99957.66;5050654;28;20206;-66
2023/05/15 00:03:11;;;;;;;2.73;1.73;;;;;;;19.69;67.72;99958.50;5050067;28;20168;-66
2023/05/15 00:05:37;;;;;;;2.10;1.40;;;;;;;19.70;67.99;99965.84;5050511;28;20203;-66
2023/05/15 00:08:02;;;;;;;2.10;1.40;;;;;;;19.68;67.65;99959.72;5051089;28;20191;-66
2023/05/15 00:10:28;;;;;;;1.70;1.00;;;;;;;19.68;67.80;99950.28;5050709;28;20259;-66
2023/05/15 00:12:54;;;;;;;2.50;1.17;;;;;;;19.68;67.76;99962.56;5032142;28;20257;-66
2023/05/15 00:15:19;;;;;;;2.03;1.30;;;;;;;19.70;67.75;99956.44;5016664;28;20199;-66
2023/05/15 00:17:44;;;;;;;1.80;1.20;;;;;;;19.68;67.87;99953.97;5043362;28;20198;-66
2023/05/15 00:20:10;;;;;;;2.30;1.20;;;;;;;19.69;67.78;99958.50;5032318;28;20176;-66
2023/05/15 00:22:36;;;;;;;2.20;1.50;;;;;;;19.68;67.89;99962.56;5049682;28;20180;-66
2023/05/15 00:25:01;;;;;;;1.70;1.00;;;;;;;19.68;67.53;99956.84;5049883;28;20172;-66
2023/05/15 00:27:27;;;;;;;2.00;1.07;;;;;;;19.68;67.65;99959.72;5031965;28;20202;-66
2023/05/15 00:29:52;;;;;;;1.77;1.03;;;;;;;19.68;68.01;99961.75;5032232;28;20180;-66
2023/05/15 00:32:18;;;;;;;2.27;1.40;;;;;;;19.68;67.84;99968.31;5032107;28;20235;-66
2023/05/15 00:34:43;;;;;;;2.00;1.23;;;;;;;19.68;67.91;99973.19;5031791;28;20183;-66
2023/05/15 00:37:09;;;;;;;2.37;1.40;;;;;;;19.68;67.86;99985.50;5015475;28;20180;-66
2023/05/15 00:39:35;;;;;;;2.50;1.50;;;;;;;19.68;67.95;99976.91;5048309;28;20191;-66
2023/05/15 00:42:01;;;;;;;1.90;1.30;;;;;;;19.68;68.11;99973.19;5014699;28;20230;-66
2023/05/15 00:44:27;;;;;;;1.90;1.13;;;;;;;19.68;67.54;99968.31;5015336;28;20429;-66
2023/05/15 00:46:52;;;;;;;2.00;1.27;;;;;;;19.68;67.88;99970.34;5031894;28;20709;-66
2023/05/15 00:49:17;;;;;;;2.17;1.20;;;;;;;19.68;67.80;99971.16;5031778;28;20643;-66
2023/05/15 00:51:43;;;;;;;2.03;1.30;;;;;;;19.68;67.82;99967.47;5032616;28;20203;-66
2023/05/15 00:54:08;;;;;;;1.77;1.20;;;;;;;19.66;67.76;99959.28;5038231;28;20228;-66
2023/05/15 00:56:34;;;;;;;2.30;1.10;;;;;;;19.67;67.81;99965.84;5033249;28;20267;-66
2023/05/15 00:59:01;;;;;;;2.17;1.40;;;;;;;19.67;67.76;99965.84;5032897;28;20179;-66
2023/05/15 01:01:32;;;;;;;1.90;1.20;;;;;;;19.67;67.96;99974.41;5031664;28;20188;-66
2023/05/15 01:03:57;;;;;;;2.00;1.40;;;;;;;19.67;68.40;99968.69;5032331;28;20437;-66
2023/05/15 01:06:23;;;;;;;2.27;1.30;;;;;;;19.66;67.80;99967.84;5030543;28;20454;-66
2023/05/15 01:08:48;;;;;;;2.00;1.23;;;;;;;19.67;67.82;99963.78;5031803;28;20210;-66
2023/05/15 01:11:14;;;;;;;2.10;1.30;;;;;;;19.66;68.08;99959.28;5028325;28;20686;-66
2023/05/15 01:13:40;;;;;;;2.60;1.50;;;;;;;19.66;67.99;99962.13;5031933;28;20184;-65
2023/05/15 01:16:06;;;;;;;1.97;1.53;;;;;;;19.66;67.87;99958.47;5047118;28;21019;-66
2023/05/15 01:18:31;;;;;;;3.07;1.37;;;;;;;19.66;67.98;99965.00;5047888;28;20748;-65
2023/05/15 01:21:24;;;;;;;1.83;1.40;;;;;;;19.66;67.98;99958.47;5044199;28;20430;-65
2023/05/15 01:24:29;;;;;;;2.33;1.67;;;;;;;19.65;67.90;99951.91;5048157;28;20168;-66
2023/05/15 01:27:21;;;;;;;2.70;1.50;;;;;;;19.66;68.12;99958.47;5047113;28;20406;-66
2023/05/15 01:29:59;;;;;;;2.40;1.53;;;;;;;19.65;67.92;99963.34;5039159;28;20442;-65
2023/05/15 01:32:40;;;;;;;1.70;1.10;;;;;;;19.66;68.21;99961.31;5039540;28;20462;-66
2023/05/15 01:35:13;;;;;;;2.53;1.50;;;;;;;19.65;67.83;99954.75;5049953;28;20429;-65
2023/05/15 01:37:44;;;;;;;2.27;1.50;;;;;;;19.65;67.94;99954.75;5034940;28;20883;-65
2023/05/15 01:40:10;;;;;;;1.90;1.40;;;;;;;19.65;68.05;99946.19;5050522;28;21199;-65
2023/05/15 01:42:36;;;;;;;1.60;0.97;;;;;;;19.64;68.10;99958.84;5051423;28;20422;-66
2023/05/15 01:45:06;;;;;;;2.07;1.30;;;;;;;19.63;68.00;99951.50;5050243;28;20450;-65
2023/05/15 01:47:37;;;;;;;2.00;1.40;;;;;;;19.64;67.95;99953.13;5034715;28;20910;-65
2023/05/15 01:50:03;;;;;;;1.90;1.27;;;;;;;19.65;68.25;99959.66;5033179;28;20430;-66
2023/05/15 01:52:29;;;;;;;1.87;1.17;;;;;;;19.64;68.13;99956.00;5031519;28;20522;-65
2023/05/15 01:54:55;;;;;;;2.43;1.20;;;;;;;19.63;68.18;99947.78;5044525;28;20215;-66
2023/05/15 01:57:20;;;;;;;2.00;1.10;;;;;;;19.64;68.19;99956.00;5041680;28;20419;-65
2023/05/15 01:59:46;;;;;;;1.90;1.30;;;;;;;19.64;68.06;99961.72;5036272;28;20191;-65
2023/05/15 02:02:11;;;;;;;1.90;1.30;;;;;;;19.64;68.01;99960.88;5047670;28;20164;-66
2023/05/15 02:04:37;;;;;;;1.90;1.20;;;;;;;19.64;67.94;99963.75;5014676;28;20250;-66
2023/05/15 02:07:03;;;;;;;2.70;1.30;;;;;;;19.63;67.98;99964.97;5026623;28;20325;-65
2023/05/15 02:09:28;;;;;;;2.33;1.33;;;;;;;19.63;68.17;99974.41;5034126;28;20247;-66
2023/05/15 02:11:53;;;;;;;2.00;1.20;;;;;;;19.64;67.95;99970.31;5016500;28;20251;-66
2023/05/15 02:14:19;;;;;;;1.93;1.20;;;;;;;19.63;68.18;99974.41;5017986;28;20164;-65
2023/05/15 02:16:44;;;;;;;2.03;1.10;;;;;;;19.63;67.99;99965.81;5016997;28;20175;-66
2023/05/15 02:19:10;;;;;;;1.90;1.30;;;;;;;19.63;68.12;99964.97;5030618;28;20243;-66
2023/05/15 02:21:35;;;;;;;2.00;1.20;;;;;;;19.62;68.02;99967.00;5037746;28;20546;-65
2023/05/15 02:24:01;;;;;;;2.00;1.20;;;;;;;19.62;67.97;99974.78;5032813;28;20624;-66
2023/05/15 02:26:47;;;;;;;2.10;1.20;;;;;;;19.63;68.08;99970.69;5021195;28;20181;-66
2023/05/15 02:29:34;;;;;;;2.60;1.77;;;;;;;19.62;68.12;99969.88;5030178;28;20283;-66
2023/05/15 02:32:30;;;;;;;2.30;1.17;;;;;;;19.61;67.98;99968.22;5032768;28;20454;-66
2023/05/15 02:35:14;;;;;;;2.10;1.13;;;;;;;19.62;68.03;99975.59;5035121;28;20426;-65
2023/05/15 02:37:39;;;;;;;1.63;1.10;;;;;;;19.62;67.94;99974.78;5051670;28;20379;-65
2023/05/15 02:40:07;;;;;;;2.00;1.20;;;;;;;19.61;68.21;99979.69;5014837;28;20949;-65
2023/05/15 02:42:33;;;;;;;2.30;1.50;;;;;;;19.62;68.19;99975.59;5033008;28;20794;-65
2023/05/15 02:44:58;;;;;;;2.00;1.30;;;;;;;19.62;68.00;99984.19;5015050;28;20456;-65
2023/05/15 02:47:23;;;;;;;2.10;1.43;;;;;;;19.61;68.25;99976.81;5032126;28;20525;-65
2023/05/15 02:49:49;;;;;;;2.00;1.30;;;;;;;19.61;68.26;99978.88;5016633;28;20179;-65
2023/05/15 02:52:14;;;;;;;2.33;1.57;;;;;;;19.61;68.05;99976.00;5032111;28;20206;-65
2023/05/15 02:54:40;;;;;;;1.83;1.20;;;;;;;19.61;68.33;99979.69;5033135;28;20180;-65
2023/05/15 02:57:06;;;;;;;2.03;1.30;;;;;;;19.60;68.07;99980.06;5033184;28;20172;-65
2023/05/15 02:59:32;;;;;;;1.80;1.03;;;;;;;19.62;68.18;99986.25;5033147;28;20508;-66
2023/05/15 03:01:58;;;;;;;1.70;1.00;;;;;;;19.61;68.19;99978.88;5033516;28;20798;-65
2023/05/15 03:04:23;;;;;;;2.20;1.20;;;;;;;19.60;67.97;99974.34;5016063;28;20639;-65
2023/05/15 03:06:49;;;;;;;1.60;0.90;;;;;;;19.60;67.99;99977.22;5032891;28;20257;-65
2023/05/15 03:09:15;;;;;;;2.37;1.50;;;;;;;19.60;67.99;99974.34;5033459;28;20225;-65
2023/05/15 03:11:41;;;;;;;2.30;1.30;;;;;;;19.59;68.16;99976.41;5053177;28;20187;-65
2023/05/15 03:14:06;;;;;;;1.97;1.37;;;;;;;19.59;68.28;99970.69;5057363;28;20960;-65
2023/05/15 03:16:31;;;;;;;1.80;1.20;;;;;;;19.58;68.18;99969.03;5051486;28;20188;-66
2023/05/15 03:18:57;;;;;;;2.50;1.50;;;;;;;19.59;68.19;99972.72;5045191;28;20191;-65
2023/05/15 03:21:22;;;;;;;1.93;1.20;;;;;;;19.60;68.22;99974.34;5020404;28;20183;-66
2023/05/15 03:23:48;;;;;;;2.40;1.70;;;;;;;19.59;68.00;99975.56;5031229;28;20164;-65
2023/05/15 03:26:13;;;;;;;1.87;1.10;;;;;;;19.58;68.18;99974.75;4996935;28;20655;-65
2023/05/15 03:28:38;;;;;;;1.63;1.03;;;;;;;19.58;68.15;99968.19;5031252;28;20183;-65
2023/05/15 03:31:04;;;;;;;2.10;1.30;;;;;;;19.58;68.05;99971.91;5027167;28;20196;-65
2023/05/15 03:33:30;;;;;;;1.93;1.27;;;;;;;19.58;68.09;99974.75;5025802;28;20631;-65
2023/05/15 03:35:56;;;;;;;1.70;1.03;;;;;;;19.60;67.99;99974.34;5049422;28;20180;-65
2023/05/15 03:38:21;;;;;;;1.97;1.27;;;;;;;19.58;68.25;99971.91;5034632;28;20449;-65
2023/05/15 03:40:47;;;;;;;2.10;1.20;;;;;;;19.58;68.02;99983.34;5030922;28;20178;-65
2023/05/15 03:43:12;;;;;;;2.13;1.40;;;;;;;19.58;68.09;99979.66;5051760;28;20179;-65
2023/05/15 03:45:38;;;;;;;2.00;1.33;;;;;;;19.58;68.06;99973.94;5032090;28;20176;-65
2023/05/15 03:48:04;;;;;;;1.90;1.30;;;;;;;19.58;68.13;99969.03;5032538;28;20172;-65
2023/05/15 03:50:29;;;;;;;1.73;1.13;;;;;;;19.58;68.06;99974.75;5031762;28;20842;-65
2023/05/15 03:52:55;;;;;;;2.10;1.20;;;;;;;19.57;67.99;99970.22;5031612;28;20274;-66
2023/05/15 03:55:20;;;;;;;2.53;1.63;;;;;;;19.57;68.05;99978.81;5031829;28;20180;-65
2023/05/15 03:57:45;;;;;;;1.80;1.10;;;;;;;19.57;68.27;99975.97;5029742;28;20160;-65
2023/05/15 04:00:11;;;;;;;2.10;1.40;;;;;;;19.57;68.06;99973.09;5046455;28;20966;-66
2023/05/15 04:02:37;;;;;;;2.43;1.47;;;;;;;19.58;68.13;99962.47;5046854;28;20862;-65
2023/05/15 04:05:04;;;;;;;1.90;1.20;;;;;;;19.58;68.05;99969.03;5029109;28;20460;-66
2023/05/15 04:07:30;;;;;;;2.10;1.23;;;;;;;19.58;67.99;99971.06;5031889;28;20543;-65
2023/05/15 04:09:55;;;;;;;2.30;1.40;;;;;;;19.57;68.07;99964.50;5015937;28;20469;-65
2023/05/15 04:12:21;;;;;;;1.93;1.27;;;;;;;19.58;68.02;99969.03;5049903;28;20840;-65
2023/05/15 04:14:47;;;;;;;2.03;1.10;;;;;;;19.57;68.06;99969.44;5031490;28;20667;-65
2023/05/15 04:17:12;;;;;;;1.50;0.97;;;;;;;19.56;68.07;99965.72;5049839;28;20244;-65
2023/05/15 04:19:39;;;;;;;2.40;1.33;;;;;;;19.57;68.22;99967.38;5041912;28;20183;-66
2023/05/15 04:22:05;;;;;;;2.07;1.40;;;;;;;19.56;68.20;99967.78;5028443;28;20206;-65
2023/05/15 04:24:30;;;;;;;1.80;1.20;;;;;;;19.56;68.20;99970.66;5029822;28;21061;-65
2023/05/15 04:26:56;;;;;;;1.97;1.33;;;;;;;19.56;68.15;99962.06;5048819;28;20236;-66
2023/05/15 04:29:21;;;;;;;2.40;1.47;;;;;;;19.56;67.91;99971.47;5048621;28;20176;-65
2023/05/15 04:31:47;;;;;;;2.23;1.40;;;;;;;19.56;68.08;99968.59;5014173;28;20427;-65
2023/05/15 04:34:12;;;;;;;2.33;1.40;;;;;;;19.56;67.97;99968.59;5047685;28;20201;-66
2023/05/15 04:36:37;;;;;;;2.30;1.20;;;;;;;19.55;68.02;99960.41;5031665;28;20167;-65
2023/05/15 04:39:03;;;;;;;2.00;1.13;;;;;;;19.55;68.09;99969.81;5015177;28;20176;-65
2023/05/15 04:41:29;;;;;;;1.93;1.27;;;;;;;19.56;68.12;99964.94;5048621;28;20175;-65
2023/05/15 04:43:54;;;;;;;4.03;1.43;;;;;;;19.56;68.17;99970.66;5049574;28;20180;-65
2023/05/15 04:46:20;;;;;;;1.70;1.03;;;;;;;19.56;67.96;99968.59;5030254;28;21047;-66
2023/05/15 04:48:45;;;;;;;1.70;1.10;;;;;;;19.56;68.03;99977.19;5011693;28;20181;-66
2023/05/15 04:51:11;;;;;;;1.90;1.20;;;;;;;19.57;68.00;99969.44;5016680;28;20204;-66
2023/05/15 04:53:36;;;;;;;1.90;1.13;;;;;;;19.57;68.06;99981.69;5029571;28;20172;-65
2023/05/15 04:56:02;;;;;;;1.97;1.30;;;;;;;19.57;67.95;99975.97;4995465;28;20469;-66
2023/05/15 04:58:27;;;;;;;1.87;1.30;;;;;;;19.57;68.16;99975.97;5027423;28;20219;-66
2023/05/15 05:00:52;;;;;;;1.80;1.10;;;;;;;19.57;68.01;99978.81;5030845;28;20620;-65
2023/05/15 05:03:18;;;;;;;2.23;1.17;;;;;;;19.57;68.01;99978.81;5015283;28;20171;-66
2023/05/15 05:05:43;;;;;;;2.00;1.20;;;;;;;19.57;67.72;99978.03;5049800;28;20192;-65
2023/05/15 05:08:09;;;;;;;1.70;1.10;;;;;;;19.57;67.79;99975.16;5031121;28;20187;-65
2023/05/15 05:10:34;;;;;;;2.00;1.30;;;;;;;19.57;67.89;99964.50;5041624;28;20223;-66
2023/05/15 05:13:00;;;;;;;2.13;1.20;;;;;;;19.57;67.93;99973.09;5052004;28;20168;-65
2023/05/15 05:15:25;;;;;;;1.80;1.13;;;;;;;19.58;68.06;99982.53;5051735;28;20291;-65
2023/05/15 05:17:51;;;;;;;2.17;1.40;;;;;;;19.57;67.94;99972.28;5052887;28;20179;-65
2023/05/15 05:20:17;;;;;;;1.60;1.10;;;;;;;19.56;67.96;99980.03;5051747;28;20184;-65
2023/05/15 05:22:42;;;;;;;1.77;0.93;;;;;;;19.56;68.03;99980.03;5052752;28;20433;-65
2023/05/15 05:25:08;;;;;;;1.70;0.93;;;;;;;19.57;67.96;99981.69;5050765;28;20179;-65
2023/05/15 05:27:33;;;;;;;2.17;1.17;;;;;;;19.58;67.95;99986.22;5051620;28;20174;-65
2023/05/15 05:29:59;;;;;;;2.00;1.40;;;;;;;19.57;67.94;99981.69;5052741;28;20199;-65
2023/05/15 05:32:25;;;;;;;2.20;1.30;;;;;;;19.58;67.50;99989.09;5052808;28;20195;-65
2023/05/15 05:34:50;;;;;;;1.97;1.37;;;;;;;19.58;68.04;99986.22;5045359;28;20194;-65
2023/05/15 05:37:15;;;;;;;2.00;1.37;;;;;;;19.56;68.00;99990.69;5045369;28;20171;-65
2023/05/15 05:39:41;;;;;;;1.83;1.20;;;;;;;19.58;67.63;99994.81;5051195;28;20558;-65
2023/05/15 05:42:06;;;;;;;1.90;1.20;;;;;;;19.58;67.93;99994.81;5031315;28;20648;-65
2023/05/15 05:44:33;;;;;;;2.03;1.30;;;;;;;19.57;67.99;99981.69;5032156;28;20204;-65
2023/05/15 05:46:58;;;;;;;2.07;1.33;;;;;;;19.58;68.03;99988.25;5049139;28;20706;-65
2023/05/15 05:49:24;;;;;;;1.70;1.10;;;;;;;19.58;68.11;99999.69;5050301;28;20497;-65
2023/05/15 05:51:50;;;;;;;2.07;1.10;;;;;;;19.57;68.16;99996.00;5050049;28;20211;-65
2023/05/15 05:54:17;;;;;;;1.70;1.10;;;;;;;19.58;68.06;99994.81;5050861;28;20638;-65
2023/05/15 05:56:42;;;;;;;1.70;1.10;;;;;;;19.57;67.77;99993.13;5051067;28;20242;-65
2023/05/15 05:59:09;;;;;;;1.90;1.23;;;;;;;19.57;68.05;99996.00;5033083;28;20415;-65
2023/05/15 06:01:34;;;;;;;1.80;1.10;;;;;;;19.57;68.36;99984.56;5033720;28;20175;-65
2023/05/15 06:04:00;;;;;;;3.10;1.23;;;;;;;19.57;68.00;99989.47;5050955;28;20422;-65
2023/05/15 06:06:26;;;;;;;1.70;1.07;;;;;;;19.57;68.03;99996.00;5051872;28;20298;-65
2023/05/15 06:08:51;;;;;;;2.27;1.40;;;;;;;19.57;68.15;99996.00;5051057;28;20160;-65
2023/05/15 06:11:16;;;;;;;2.20;1.13;;;;;;;19.58;68.09;100002.56;5049816;28;20231;-65
2023/05/15 06:13:42;;;;;;;2.90;1.40;;;;;;;19.56;68.04;99994.38;5049942;28;20187;-65
2023/05/15 06:16:07;;;;;;;2.30;1.30;;;;;;;19.56;68.06;99988.63;5028650;28;20187;-65
2023/05/15 06:18:33;;;;;;;2.33;1.63;;;;;;;19.58;68.19;99996.84;5049301;28;20179;-65
2023/05/15 06:20:59;;;;;;;1.73;1.13;;;;;;;19.58;67.94;99991.94;5050205;28;20172;-65
2023/05/15 06:23:25;;;;;;;2.20;1.20;;;;;;;19.58;68.03;99994.81;5050875;28;20642;-65
2023/05/15 06:25:51;;;;;;;2.30;1.40;;;;;;;19.58;68.21;99997.66;5049856;28;20521;-65
2023/05/15 06:28:16;;;;;;;1.90;1.20;;;;;;;19.57;67.94;99990.28;5051830;28;20434;-65
2023/05/15 06:30:42;;;;;;;2.10;1.40;;;;;;;19.58;68.00;99993.97;5045896;28;20192;-65
2023/05/15 06:33:07;;;;;;;2.00;1.37;;;;;;;19.58;68.01;99994.81;5030687;28;20173;-65
2023/05/15 06:35:32;;;;;;;1.70;1.20;;;;;;;19.58;67.84;99991.94;5037606;28;20187;-65
2023/05/15 06:37:58;;;;;;;1.80;1.10;;;;;;;19.57;67.93;99990.28;5050079;28;20649;-65
2023/05/15 06:40:23;;;;;;;1.73;1.17;;;;;;;19.58;67.25;99996.84;5033874;28;20669;-65
2023/05/15 06:42:49;;;;;;;2.60;1.30;;;;;;;19.59;67.83;100004.19;5051122;28;20175;-65
2023/05/15 06:45:14;;;;;;;1.70;1.10;;;;;;;19.59;67.88;100001.34;5049017;28;20190;-65
2023/05/15 06:47:40;;;;;;;1.97;1.23;;;;;;;19.59;67.86;100004.19;5030586;28;20165;-65
2023/05/15 06:50:06;;;;;;;1.87;1.13;;;;;;;19.58;67.83;99994.81;5038567;28;20241;-65
2023/05/15 06:52:31;;;;;;;1.70;1.13;;;;;;;19.59;67.89;99999.31;5051003;28;20199;-65
2023/05/15 06:54:57;;;;;;;2.40;1.40;;;;;;;19.58;68.10;100002.56;5050958;28;20172;-65
2023/05/15 06:57:22;;;;;;;2.33;1.43;;;;;;;19.57;67.99;99996.00;5050050;28;20159;-65
2023/05/15 06:59:47;;;;;;;2.20;1.50;;;;;;;19.58;67.75;100002.56;5049160;28;20184;-65
2023/05/15 07:02:13;;;;;;;1.90;1.00;;;;;;;19.58;67.52;99993.97;5051415;28;20182;-65
2023/05/15 07:04:38;;;;;;;1.90;1.20;;;;;;;19.57;68.00;99998.06;5032070;28;20175;-65
2023/05/15 07:07:05;;;;;;;1.70;1.00;;;;;;;19.57;67.71;100004.59;5032658;28;20192;-65
2023/05/15 07:09:30;;;;;;;1.70;1.00;;;;;;;19.56;67.78;99997.22;5051256;28;20513;-65
2023/05/15 07:11:55;;;;;;;2.30;1.30;;;;;;;19.57;67.65;100007.47;5015362;28;20464;-65
2023/05/15 07:14:21;;;;;;;1.80;1.13;;;;;;;19.56;68.00;100002.94;5035301;28;20179;-65
2023/05/15 07:16:46;;;;;;;2.70;1.10;;;;;;;19.57;68.04;100000.94;5051589;28;20159;-64
2023/05/15 07:19:12;;;;;;;1.77;1.10;;;;;;;19.57;67.81;100006.66;5069609;28;20211;-65
2023/05/15 07:21:40;;;;;;;2.20;1.47;;;;;;;19.57;67.88;100003.78;5037134;28;20568;-65
2023/05/15 07:24:06;;;;;;;1.90;1.33;;;;;;;19.58;67.98;100014.03;5032397;28;20179;-65
2023/05/15 07:26:32;;;;;;;1.67;1.00;;;;;;;19.57;67.65;100000.94;5035645;28;20444;-65
2023/05/15 07:28:57;;;;;;;1.70;1.20;;;;;;;19.57;68.04;100001.72;5068440;28;20190;-65
2023/05/15 07:31:23;;;;;;;1.57;0.90;;;;;;;19.58;67.55;100002.56;5068856;28;20202;-65
2023/05/15 07:33:48;;;;;;;2.00;1.30;;;;;;;19.58;67.78;99991.94;5064707;28;20254;-65
2023/05/15 07:36:13;;;;;;;1.60;1.00;;;;;;;19.57;68.02;99998.88;5070211;28;20167;-65
2023/05/15 07:38:39;;;;;;;2.23;1.20;;;;;;;19.58;67.48;99988.25;5069466;28;20537;-65
2023/05/15 07:41:04;;;;;;;2.27;1.30;;;;;;;19.58;67.62;100000.53;5070502;28;20156;-65
2023/05/15 07:43:30;;;;;;;1.80;1.00;;;;;;;19.58;67.59;100000.53;5069604;28;20171;-65
2023/05/15 07:45:55;;;;;;;2.17;1.27;;;;;;;19.57;67.91;99998.88;5070317;28;20171;-66
2023/05/15 07:48:21;;;;;;;1.90;1.40;;;;;;;19.58;67.81;100003.41;5069364;28;20636;-66
2023/05/15 07:50:47;;;;;;;1.73;1.17;;;;;;;19.58;67.81;100003.41;5052155;28;20293;-65
2023/05/15 07:53:13;;;;;;;1.70;1.00;;;;;;;19.57;67.51;99995.19;5034266;28;20487;-66
2023/05/15 07:55:40;;;;;;;2.87;1.33;;;;;;;19.57;67.91;99995.19;5034485;28;20709;-65
2023/05/15 07:58:06;;;;;;;1.87;1.10;;;;;;;19.57;67.96;99996.00;5068760;28;21179;-66
2023/05/15 08:00:32;;;;;;;2.70;1.00;;;;;;;19.58;67.71;99996.84;5034201;28;20579;-65
2023/05/15 08:02:58;;;;;;;1.60;1.10;;;;;;;19.58;67.80;99986.22;5050998;28;20451;-65
2023/05/15 08:05:24;;;;;;;1.50;1.00;;;;;;;19.59;67.93;99990.72;5062344;28;20199;-65
2023/05/15 08:07:49;;;;;;;2.20;1.23;;;;;;;19.60;67.71;99985.81;5058081;28;20445;-65
2023/05/15 08:10:15;;;;;;;1.80;1.27;;;;;;;19.61;67.36;99996.06;5043754;28;20250;-65
2023/05/15 08:12:45;;;;;;;1.80;1.10;;;;;;;19.61;67.44;99991.13;5032122;28;20267;-66
2023/05/15 08:15:10;;;;;;;1.70;1.10;;;;;;;19.61;67.51;99991.13;5015702;28;20623;-65
2023/05/15 08:17:36;;;;;;;2.40;1.60;;;;;;;19.63;67.61;99996.47;5047571;28;20444;-65
2023/05/15 08:20:01;;;;;;;1.67;0.97;;;;;;;19.61;67.83;99994.00;5030480;28;20191;-66
2023/05/15 08:22:29;;;;;;;1.97;1.20;;;;;;;19.61;67.54;99996.88;5019113;28;20742;-65
2023/05/15 08:24:54;;;;;;;1.57;1.03;;;;;;;19.61;67.55;99981.75;5013762;28;20183;-66
2023/05/15 08:27:20;;;;;;;1.80;1.17;;;;;;;19.62;67.39;99980.53;5030582;28;20851;-65
2023/05/15 08:29:46;;;;;;;1.70;1.10;;;;;;;19.62;67.34;99980.53;5031363;28;20175;-66
2023/05/15 08:32:11;;;;;;;2.00;1.07;;;;;;;19.61;67.46;99982.53;5049256;28;20206;-66
2023/05/15 08:34:37;;;;;;;1.70;1.00;;;;;;;19.60;67.35;99989.50;5013421;28;20913;-65
2023/05/15 08:37:03;;;;;;;1.80;1.03;;;;;;;19.61;67.47;99979.69;5048219;28;20253;-65
2023/05/15 08:39:28;;;;;;;1.70;1.00;;;;;;;19.62;67.63;99986.25;5046804;28;20529;-65
2023/05/15 08:42:12;;;;;;;1.60;1.00;;;;;;;19.62;67.28;99986.25;5048379;28;20176;-66
2023/05/15 08:44:38;;;;;;;1.80;1.10;;;;;;;19.62;67.38;99987.03;5052026;28;20190;-65
2023/05/15 08:47:04;;;;;;;2.30;1.40;;;;;;;19.62;67.48;99989.09;5051907;28;20997;-65
2023/05/15 08:49:30;;;;;;;1.97;1.17;;;;;;;19.61;67.36;99976.81;5035994;28;20428;-66
2023/05/15 08:51:56;;;;;;;1.77;1.10;;;;;;;19.62;67.67;99978.47;5053779;28;20827;-65
2023/05/15 08:54:21;;;;;;;1.60;1.10;;;;;;;19.62;67.88;99969.88;5052822;28;20175;-65
2023/05/15 08:56:47;;;;;;;1.93;1.03;;;;;;;19.62;67.45;99969.88;5053352;28;20188;-66
2023/05/15 08:59:12;;;;;;;1.40;0.70;;;;;;;19.63;67.47;99976.44;5017851;28;20184;-66
2023/05/15 09:01:37;;;;;;;3.10;1.33;;;;;;;19.63;67.47;99967.84;5051496;28;20179;-66
2023/05/15 09:04:03;;;;;;;1.67;1.13;;;;;;;19.63;67.29;99970.69;5052282;28;20179;-65
2023/05/15 09:06:28;;;;;;;2.17;1.10;;;;;;;19.62;67.12;99967.00;5000507;28;20658;-65
2023/05/15 09:08:55;;;;;;;1.97;1.20;;;;;;;19.62;67.43;99966.19;5052168;28;20509;-65
2023/05/15 09:11:22;;;;;;;2.00;1.10;;;;;;;19.62;67.79;99963.34;5052037;28;20224;-65
2023/05/15 09:13:47;;;;;;;1.60;0.80;;;;;;;19.62;67.51;99969.88;5051778;28;20624;-66
2023/05/15 09:16:13;;;;;;;2.03;1.23;;;;;;;19.62;67.64;99972.72;5051159;28;20425;-65
2023/05/15 09:18:38;;;;;;;3.63;1.40;;;;;;;19.61;67.59;99968.22;5051445;28;20171;-65
2023/05/15 09:21:24;;;;;;;1.77;1.03;;;;;;;19.62;67.40;99966.19;5033552;28;20179;-66
2023/05/15 09:23:49;;;;;;;2.10;1.20;;;;;;;19.62;67.55;99958.41;5032827;28;20658;-66
2023/05/15 09:26:15;;;;;;;1.73;1.10;;;;;;;19.62;67.34;99958.41;5050724;28;20402;-65
2023/05/15 09:28:40;;;;;;;1.87;1.17;;;;;;;19.62;67.45;99941.22;5051098;28;20172;-65
2023/05/15 09:31:07;;;;;;;1.70;1.20;;;;;;;19.62;67.32;99952.69;5048050;28;20196;-65
2023/05/15 09:33:38;;;;;;;1.80;1.00;;;;;;;19.63;67.38;99942.06;5030420;28;20178;-65
2023/05/15 09:36:05;;;;;;;2.60;1.40;;;;;;;19.62;67.33;99944.09;5016264;28;20450;-65
2023/05/15 09:38:34;;;;;;;2.00;1.10;;;;;;;19.62;67.64;99946.97;5051406;28;20438;-66
2023/05/15 09:41:09;;;;;;;1.87;1.23;;;;;;;19.62;67.44;99946.97;5033407;28;20481;-65
2023/05/15 09:43:38;;;;;;;1.90;1.10;;;;;;;19.61;67.44;99945.31;5032971;28;20448;-65
2023/05/15 09:46:03;;;;;;;2.10;1.00;;;;;;;19.62;67.37;99932.63;5033747;28;20467;-66
2023/05/15 09:48:29;;;;;;;1.70;1.00;;;;;;;19.63;67.07;99933.47;5016355;28;20446;-65
2023/05/15 09:50:55;;;;;;;1.83;1.30;;;;;;;19.62;67.24;99926.91;5016895;28;20192;-66
2023/05/15 09:53:21;;;;;;;1.70;1.00;;;;;;;19.63;67.24;99925.72;5033097;28;20943;-66
2023/05/15 09:55:46;;;;;;;1.70;1.10;;;;;;;19.63;67.57;99924.88;5033458;28;20179;-65
2023/05/15 09:58:13;;;;;;;2.07;1.27;;;;;;;19.62;67.39;99924.03;5052549;28;20576;-66
2023/05/15 10:00:39;;;;;;;2.00;1.10;;;;;;;19.64;67.47;99915.06;5047187;28;20284;-65
2023/05/15 10:03:05;;;;;;;1.90;1.30;;;;;;;19.63;67.51;99907.69;5033340;28;20444;-65
2023/05/15 10:05:31;;;;;;;1.90;1.10;;;;;;;19.63;67.39;99917.13;5016826;28;20527;-65
2023/05/15 10:07:57;;;;;;;1.63;1.00;;;;;;;19.63;67.46;99911.41;5051696;28;20426;-65
2023/05/15 10:10:22;;;;;;;1.80;1.20;;;;;;;19.63;67.51;99914.25;5053830;28;20227;-65
2023/05/15 10:12:49;;;;;;;2.20;1.10;;;;;;;19.63;67.50;99913.44;5051472;28;20608;-66
2023/05/15 10:15:15;;;;;;;2.43;1.33;;;;;;;19.64;67.80;99915.91;5034153;28;20192;-65
2023/05/15 10:17:41;;;;;;;1.90;1.03;;;;;;;19.65;67.44;99916.69;5033920;28;20517;-65
2023/05/15 10:20:07;;;;;;;2.03;1.20;;;;;;;19.64;67.58;99910.16;5001162;28;20734;-65
2023/05/15 10:22:36;;;;;;;2.43;1.20;;;;;;;19.63;67.35;99905.66;5048108;28;20267;-65
2023/05/15 10:25:05;;;;;;;2.10;1.27;;;;;;;19.64;67.41;99904.44;5017544;28;20171;-66
2023/05/15 10:27:31;;;;;;;1.73;1.07;;;;;;;19.64;67.43;99904.44;5033290;28;20438;-66
2023/05/15 10:29:56;;;;;;;1.80;1.10;;;;;;;19.63;67.43;99897.06;5033651;28;20441;-66
2023/05/15 10:32:22;;;;;;;2.37;1.20;;;;;;;19.64;67.45;99895.84;5033598;28;20208;-66
2023/05/15 10:34:47;;;;;;;1.80;1.10;;;;;;;19.64;67.45;99881.53;5051722;28;20651;-65
2023/05/15 10:37:13;;;;;;;1.60;1.13;;;;;;;19.64;67.46;99892.97;5032883;28;20623;-65
2023/05/15 10:39:39;;;;;;;1.77;0.90;;;;;;;19.65;67.51;99883.16;5017219;28;20192;-65
2023/05/15 10:42:05;;;;;;;2.27;1.50;;;;;;;19.66;67.23;99878.28;5032773;28;20186;-65
2023/05/15 10:44:31;;;;;;;1.70;0.97;;;;;;;19.66;67.27;99881.94;5017089;28;20517;-66
2023/05/15 10:46:56;;;;;;;1.50;0.90;;;;;;;19.63;67.56;99862.72;5033020;28;20563;-65
2023/05/15 10:49:21;;;;;;;3.47;1.10;;;;;;;19.65;67.38;99865.16;5033491;28;20164;-66
2023/05/15 10:51:47;;;;;;;1.87;1.20;;;;;;;19.67;67.32;99857.00;5024578;28;20204;-65
2023/05/15 10:54:12;;;;;;;1.70;1.10;;;;;;;19.67;67.33;99857.00;5016612;28;20806;-66
2023/05/15 10:56:38;;;;;;;1.70;1.10;;;;;;;19.69;67.08;99860.28;5016021;28;20961;-65
2023/05/15 10:59:08;;;;;;;1.73;0.97;;;;;;;19.69;67.25;99860.28;5016704;28;20195;-66
2023/05/15 11:01:35;;;;;;;2.70;1.20;;;;;;;19.68;67.28;99859.47;5012798;28;20422;-65
2023/05/15 11:04:16;;;;;;;1.87;1.20;;;;;;;19.66;67.33;99856.16;5045493;28;20579;-66
2023/05/15 11:06:43;;;;;;;1.97;1.10;;;;;;;19.67;67.40;99857.00;5032168;28;20450;-65
2023/05/15 11:09:21;;;;;;;2.73;0.90;;;;;;;19.66;67.37;99861.09;5031720;28;20445;-65
2023/05/15 11:11:54;;;;;;;1.90;1.20;;;;;;;19.66;67.29;99858.22;5048950;28;21017;-65
2023/05/15 11:14:23;;;;;;;2.00;1.23;;;;;;;19.66;67.52;99861.91;5032333;28;20940;-66
2023/05/15 11:16:51;;;;;;;2.10;1.20;;;;;;;19.67;67.31;99859.88;5032562;28;20925;-65
2023/05/15 11:19:39;;;;;;;1.83;1.10;;;;;;;19.66;67.34;99864.75;5051092;28;20526;-65
2023/05/15 11:22:07;;;;;;;1.87;1.10;;;;;;;19.65;67.52;99877.44;5050699;28;20446;-65
2023/05/15 11:24:51;;;;;;;2.07;1.30;;;;;;;19.65;67.37;99899.50;5050069;28;20429;-65
2023/05/15 11:27:24;;;;;;;2.00;1.20;;;;;;;19.65;67.59;99910.97;5050634;28;20460;-65
2023/05/15 11:30:09;;;;;;;1.90;1.27;;;;;;;19.65;67.37;99916.69;5036124;28;20461;-65